Latest Weather Observations for Kurnell

IDN60901

Issued at 2:21 am EST Friday 29 July 2016 (issued every 10 minutes, with the page automatically refreshed every 10 minutes)

About weather observations | Map of Sydney area stations | Latest observations for Sydney area | Other Formats
Station Details ID: 066043 Name: KURNELL AWS Lat: -34.00 Lon: 151.21 Height: 4.0 m
Data from the previous 72 hours. | See also: Recent months for locations in New South Wales
Date/Time
EST
Temp
°C
App
Temp
°C
Dew
Point
°C
Rel
Hum
%
Delta-T
°C
Wind Press
QNH
hPa
Press
MSL
hPa
Rain since
9am
mm
Dir  Spd
km/h
Gust
km/h
Spd
kts
Gust
kts
29/02:00am - - - - - NW 22 26 12 14 - - -
29/01:30am - - - - - WNW 22 28 12 15 - - -
29/01:00am - - - - - WNW 24 28 13 15 - - -
29/12:30am - - - - - W 22 26 12 14 - - -
29/12:00am - - - - - W 24 30 13 16 - - -
 
Date/Time
EST
Temp
°C
App
Temp
°C
Dew
Point
°C
Rel
Hum
%
Delta-T
°C
Wind Press
QNH
hPa
Press
MSL
hPa
Rain since
9am
mm
Dir  Spd
km/h
Gust
km/h
Spd
kts
Gust
kts
28/11:30pm - - - - - W 26 30 14 16 - - -
28/11:00pm - - - - - W 28 33 15 18 - - -
28/10:30pm - - - - - W 24 30 13 16 - - -
28/10:00pm - - - - - W 30 37 16 20 - - -
28/09:30pm - - - - - W 32 35 17 19 - - -
28/09:00pm - - - - - W 32 37 17 20 - - -
28/08:30pm - - - - - WNW 30 35 16 19 - - -
28/08:00pm - - - - - W 32 37 17 20 - - -
28/07:30pm - - - - - W 37 43 20 23 - - -
28/07:00pm - - - - - WSW 39 56 21 30 - - -
28/06:56pm - - - - - W 33 52 18 28 - - -
28/06:30pm - - - - - W 30 33 16 18 - - -
28/06:00pm - - - - - W 20 28 11 15 - - -
28/05:30pm - - - - - W 30 35 16 19 - - -
28/05:00pm - - - - - WSW 22 32 12 17 - - -
28/04:30pm - - - - - W 22 28 12 15 - - -
28/04:00pm - - - - - WNW 20 26 11 14 - - -
28/03:30pm - - - - - NNW 11 13 6 7 - - -
28/03:00pm - - - - - NW 15 19 8 10 - - -
28/02:30pm - - - - - NNW 17 19 9 10 - - -
28/02:00pm - - - - - NNW 15 17 8 9 - - -
28/01:30pm - - - - - WNW 15 20 8 11 - - -
28/01:00pm - - - - - NW 15 17 8 9 - - -
28/12:30pm - - - - - NW 17 19 9 10 - - -
28/12:00pm - - - - - NW 17 20 9 11 - - -
28/11:30am - - - - - NW 17 19 9 10 - - -
28/11:00am - - - - - NW 17 20 9 11 - - -
28/10:30am - - - - - WNW 19 24 10 13 - - -
28/10:00am - - - - - WNW 20 26 11 14 - - -
28/09:30am - - - - - WNW 17 24 9 13 - - -
28/09:00am - - - - - W 19 22 10 12 - - -
28/08:30am - - - - - W 24 30 13 16 - - -
28/08:00am - - - - - W 22 26 12 14 - - -
28/07:30am - - - - - WNW 19 24 10 13 - - -
28/07:00am - - - - - WNW 17 20 9 11 - - -
28/06:30am - - - - - W 22 24 12 13 - - -
28/06:00am - - - - - WNW 26 30 14 16 - - -
28/05:30am - - - - - WNW 26 30 14 16 - - -
28/05:00am - - - - - WNW 22 28 12 15 - - -
28/04:30am - - - - - WNW 24 28 13 15 - - -
28/04:00am - - - - - WNW 24 28 13 15 - - -
28/03:30am - - - - - WNW 28 32 15 17 - - -
28/03:00am - - - - - WNW 26 30 14 16 - - -
28/02:30am - - - - - WNW 26 33 14 18 - - -
28/02:00am - - - - - WNW 28 33 15 18 - - -
28/01:30am - - - - - W 30 35 16 19 - - -
28/01:00am - - - - - W 32 37 17 20 - - -
28/12:30am - - - - - W 32 39 17 21 - - -
28/12:00am - - - - - W 24 28 13 15 - - -
 
Date/Time
EST
Temp
°C
App
Temp
°C
Dew
Point
°C
Rel
Hum
%
Delta-T
°C
Wind Press
QNH
hPa
Press
MSL
hPa
Rain since
9am
mm
Dir  Spd
km/h
Gust
km/h
Spd
kts
Gust
kts
27/11:30pm - - - - - W 28 35 15 19 - - -
27/11:00pm - - - - - WNW 30 35 16 19 - - -
27/10:30pm - - - - - WNW 30 33 16 18 - - -
27/10:00pm - - - - - WNW 32 37 17 20 - - -
27/09:30pm - - - - - WNW 37 44 20 24 - - -
27/09:00pm - - - - - WNW 28 33 15 18 - - -
27/08:30pm - - - - - WNW 33 39 18 21 - - -
27/08:00pm - - - - - WNW 35 43 19 23 - - -
27/07:30pm - - - - - WNW 32 37 17 20 - - -
27/07:00pm - - - - - WNW 32 39 17 21 - - -
27/06:30pm - - - - - WNW 33 37 18 20 - - -
27/06:00pm - - - - - W 22 32 12 17 - - -
27/05:30pm - - - - - W 35 46 19 25 - - -
27/05:00pm - - - - - W 35 44 19 24 - - -
27/04:30pm - - - - - W 41 52 22 28 - - -
27/04:00pm - - - - - W 43 54 23 29 - - -
27/03:30pm - - - - - W 44 57 24 31 - - -
27/03:00pm - - - - - W 41 52 22 28 - - -
27/02:30pm - - - - - W 44 56 24 30 - - -
27/02:00pm - - - - - W 41 52 22 28 - - -
27/01:30pm - - - - - W 41 54 22 29 - - -
27/01:00pm - - - - - WNW 37 44 20 24 - - -
27/12:30pm - - - - - WNW 33 39 18 21 - - -
27/12:00pm - - - - - W 35 48 19 26 - - -
27/11:30am - - - - - WNW 37 48 20 26 - - -
27/11:00am - - - - - WNW 46 54 25 29 - - -
27/10:30am - - - - - NW 41 56 22 30 - - -
27/10:13am - - - - - NW 30 39 16 21 - - -
27/10:00am - - - - - WNW 13 20 7 11 - - -
27/09:30am - - - - - NNW 15 19 8 10 - - -
27/09:00am - - - - - NW 24 32 13 17 - - -
27/08:30am - - - - - NW 32 35 17 19 - - -
27/08:00am - - - - - NW 33 39 18 21 - - -
27/07:30am - - - - - NNW 35 43 19 23 - - -
27/07:00am - - - - - NNW 35 43 19 23 - - -
27/06:30am - - - - - NNW 32 39 17 21 - - -
27/06:00am - - - - - NNW 30 37 16 20 - - -
27/05:30am - - - - - NNW 20 30 11 16 - - -
27/05:00am - - - - - NW 22 32 12 17 - - -
27/04:30am - - - - - NNW 26 32 14 17 - - -
27/04:00am - - - - - NNW 26 37 14 20 - - -
27/03:30am - - - - - NNW 22 32 12 17 - - -
27/03:00am - - - - - NNW 19 24 10 13 - - -
27/02:30am - - - - - NNW 19 30 10 16 - - -
27/02:00am - - - - - N 15 22 8 12 - - -
27/01:30am - - - - - NNW 17 22 9 12 - - -
27/01:00am - - - - - N 17 22 9 12 - - -
27/12:30am - - - - - NNW 17 26 9 14 - - -
27/12:00am - - - - - N 17 20 9 11 - - -
 
Date/Time
EST
Temp
°C
App
Temp
°C
Dew
Point
°C
Rel
Hum
%
Delta-T
°C
Wind Press
QNH
hPa
Press
MSL
hPa
Rain since
9am
mm
Dir  Spd
km/h
Gust
km/h
Spd
kts
Gust
kts
26/11:30pm - - - - - NNE 13 17 7 9 - - -
26/11:00pm - - - - - NNE 9 11 5 6 - - -
26/10:30pm - - - - - E 4 7 2 4 - - -
26/10:00pm - - - - - CALM 0 0 0 0 - - -
26/09:30pm - - - - - SSW 6 7 3 4 - - -
26/09:00pm - - - - - SW 9 11 5 6 - - -
26/08:30pm - - - - - WSW 15 19 8 10 - - -
26/08:00pm - - - - - W 22 30 12 16 - - -
26/07:30pm - - - - - WNW 28 32 15 17 - - -
26/07:00pm - - - - - W 30 37 16 20 - - -
26/06:30pm - - - - - W 35 43 19 23 - - -
26/06:00pm - - - - - W 30 35 16 19 - - -
26/05:30pm - - - - - WNW 28 33 15 18 - - -
26/05:00pm - - - - - WNW 28 37 15 20 - - -
26/04:30pm - - - - - ENE 6 9 3 5 - - -
26/04:00pm - - - - - E 19 22 10 12 - - -
26/03:30pm - - - - - ENE 17 22 9 12 - - -
26/03:00pm - - - - - ENE 17 20 9 11 - - -
26/02:30pm - - - - - ENE 19 24 10 13 - - -
26/02:00pm - - - - - ENE 20 26 11 14 - - -
26/01:30pm - - - - - E 17 22 9 12 - - -
26/01:00pm - - - - - E 15 19 8 10 - - -
26/12:30pm - - - - - ENE 15 19 8 10 - - -
26/12:00pm - - - - - ENE 13 17 7 9 - - -
26/11:30am - - - - - CALM 0 0 0 0 - - -
26/11:00am - - - - - CALM 0 6 0 3 - - -
26/10:30am - - - - - W 2 7 1 4 - - -
26/10:00am - - - - - NNE 2 7 1 4 - - -
26/09:30am - - - - - NW 7 9 4 5 - - -
26/09:00am - - - - - NNW 7 9 4 5 - - -
26/08:30am - - - - - N 11 13 6 7 - - -
26/08:00am - - - - - NNE 7 9 4 5 - - -
26/07:30am - - - - - NNE 13 17 7 9 - - -
26/07:00am - - - - - N 20 28 11 15 - - -
26/06:30am - - - - - N 22 28 12 15 - - -
26/06:00am - - - - - N 19 22 10 12 - - -
26/05:30am - - - - - N 19 24 10 13 - - -
26/05:00am - - - - - N 22 28 12 15 - - -
26/04:30am - - - - - N 26 33 14 18 - - -
26/04:00am - - - - - N 22 26 12 14 - - -
26/03:30am - - - - - N 20 26 11 14 - - -
26/03:00am - - - - - N 15 19 8 10 - - -
26/02:30am - - - - - N 19 24 10 13 - - -

Latest Capital City Observations: Canberra | Sydney | Melbourne | Brisbane | Adelaide | Perth | Hobart | Darwin

Other Formats:

Comma delimited format used in spreadsheet applications
http://www.bom.gov.au/fwo/IDN60901/IDN60901.95756.axf

JavaScript Object Notation format (JSON) in row-major order
http://www.bom.gov.au/fwo/IDN60901/IDN60901.95756.json